Time;durP1;ratioP1;P1;durP2;ratioP2;P2;SDS_P1;SDS_P2;PMS_P1;PMS_P2;Temp;Humidity;BMP_temperature;BMP_pressure;BME280_temperature;BME280_humidity;BME280_pressure;Samples;Min_cycle;Max_cycle;Signal;HPM_P1;HPM_P2
2021/07/28 00:00:46;;;;;;;;;;;17.00;99.90;;;;;;4989483;28;19928;-86
2021/07/28 00:03:11;;;;;;;;;;;17.00;99.90;;;;;;4967570;28;19921;-86
2021/07/28 00:05:37;;;;;;;;;;;17.00;99.90;;;;;;5001660;28;19918;-86
2021/07/28 00:08:03;;;;;;;;;;;16.90;99.90;;;;;;5002491;28;19921;-85
2021/07/28 00:10:28;;;;;;;;;;;16.90;99.90;;;;;;5016415;28;19922;-86
2021/07/28 00:12:54;;;;;;;;;;;16.90;99.90;;;;;;5005983;28;19924;-86
2021/07/28 00:15:20;;;;;;;;;;;16.90;99.90;;;;;;4988504;28;20373;-85
2021/07/28 00:17:49;;;;;;;;;;;16.90;99.90;;;;;;4991957;28;19935;-85
2021/07/28 00:23:14;;;;;;;;;;;16.90;99.90;;;;;;5007624;28;19927;-86
2021/07/28 00:25:44;;;;;;;;;;;17.00;99.90;;;;;;5004818;28;19964;-85
2021/07/28 00:28:11;;;;;;;;;;;17.00;99.90;;;;;;4984439;28;19935;-86
2021/07/28 00:30:37;;;;;;;;;;;17.00;99.90;;;;;;5005691;28;20016;-86
2021/07/28 00:33:04;;;;;;;;;;;17.00;99.90;;;;;;5002106;28;20020;-86
2021/07/28 00:35:29;;;;;;;;;;;17.00;99.90;;;;;;4986306;28;19939;-85
2021/07/28 00:38:00;;;;;;;;;;;17.00;99.90;;;;;;5007787;28;20285;-85
2021/07/28 00:40:26;;;;;;;;;;;16.90;99.90;;;;;;5005005;28;19929;-86
2021/07/28 00:43:06;;;;;;;;;;;16.90;99.90;;;;;;4989038;28;20438;-86
2021/07/28 00:45:32;;;;;;;;;;;16.90;99.90;;;;;;5021701;28;19928;-86
2021/07/28 00:47:57;;;;;;;;;;;16.90;99.90;;;;;;4994810;28;19926;-86
2021/07/28 00:50:23;;;;;;;;;;;16.90;99.90;;;;;;5002136;28;20360;-85
2021/07/28 00:52:49;;;;;;;;;;;16.90;99.90;;;;;;5005323;28;19925;-85
2021/07/28 00:55:15;;;;;;;;;;;16.90;99.90;;;;;;4989635;28;20407;-85
2021/07/28 00:57:41;;;;;;;;;;;16.80;99.90;;;;;;4990130;28;19926;-86
2021/07/28 01:00:07;;;;;;;;;;;16.80;99.90;;;;;;5005022;28;19964;-86
2021/07/28 01:02:34;;;;;;;;;;;16.80;99.90;;;;;;5004933;28;19964;-86
2021/07/28 01:04:59;;;;;;;;;;;16.80;99.90;;;;;;5004987;28;19971;-85
2021/07/28 01:07:26;;;;;;;;;;;16.70;99.90;;;;;;5023368;28;19933;-85
2021/07/28 01:09:52;;;;;;;;;;;16.80;99.90;;;;;;5004119;28;20020;-86
2021/07/28 01:12:18;;;;;;;;;;;16.80;99.90;;;;;;5005407;28;20001;-86
2021/07/28 01:14:44;;;;;;;;;;;16.80;99.90;;;;;;4992798;28;19925;-85
2021/07/28 01:17:10;;;;;;;;;;;16.80;99.90;;;;;;4986255;28;19926;-85
2021/07/28 01:19:39;;;;;;;;;;;16.70;99.90;;;;;;4967822;28;19929;-86
2021/07/28 01:22:05;;;;;;;;;;;16.80;99.90;;;;;;5025049;28;19925;-86
2021/07/28 01:24:31;;;;;;;;;;;16.80;99.90;;;;;;4995176;28;19925;-86
2021/07/28 01:26:59;;;;;;;;;;;16.80;99.90;;;;;;5002999;28;20381;-86
2021/07/28 01:29:25;;;;;;;;;;;16.90;99.90;;;;;;4994520;28;20020;-86
2021/07/28 01:31:54;;;;;;;;;;;16.90;99.90;;;;;;5011023;28;20341;-86
2021/07/28 01:34:20;;;;;;;;;;;16.90;99.90;;;;;;5010902;28;19925;-86
2021/07/28 01:36:48;;;;;;;;;;;16.80;99.90;;;;;;5019702;28;20011;-85
2021/07/28 01:39:14;;;;;;;;;;;16.80;99.90;;;;;;5006416;28;19927;-86
2021/07/28 01:41:39;;;;;;;;;;;16.80;99.90;;;;;;4982723;28;20432;-86
2021/07/28 01:44:05;;;;;;;;;;;16.80;99.90;;;;;;4998743;28;19925;-86
2021/07/28 01:46:31;;;;;;;;;;;16.80;99.90;;;;;;4998045;28;19929;-86
2021/07/28 01:48:56;;;;;;;;;;;16.80;99.90;;;;;;5032266;28;19941;-86
2021/07/28 01:51:22;;;;;;;;;;;16.80;99.90;;;;;;4998410;28;20562;-86
2021/07/28 01:53:49;;;;;;;;;;;16.80;99.90;;;;;;4998749;28;19921;-86
2021/07/28 01:56:17;;;;;;;;;;;16.80;99.90;;;;;;5014774;28;19936;-86
2021/07/28 01:58:52;;;;;;;;;;;16.80;99.90;;;;;;5014459;28;19921;-86
2021/07/28 02:01:18;;;;;;;;;;;16.80;99.90;;;;;;5015846;28;19925;-86
2021/07/28 02:03:46;;;;;;;;;;;16.80;99.90;;;;;;5015157;28;19975;-85
2021/07/28 02:06:11;;;;;;;;;;;16.80;99.90;;;;;;5004296;28;19925;-85
2021/07/28 02:08:37;;;;;;;;;;;16.80;99.90;;;;;;5014278;28;19940;-86
2021/07/28 02:11:03;;;;;;;;;;;16.70;99.90;;;;;;4998077;28;20023;-85
2021/07/28 02:13:28;;;;;;;;;;;16.80;99.90;;;;;;5005433;28;20458;-85
2021/07/28 02:15:54;;;;;;;;;;;16.80;99.90;;;;;;5014206;28;19979;-86
2021/07/28 02:18:20;;;;;;;;;;;16.70;99.90;;;;;;5012581;28;19925;-86
2021/07/28 02:20:46;;;;;;;;;;;16.80;99.90;;;;;;5015040;28;19925;-86
2021/07/28 02:23:12;;;;;;;;;;;16.80;99.90;;;;;;5014260;28;20262;-86
2021/07/28 02:25:37;;;;;;;;;;;16.80;99.90;;;;;;4998311;28;20043;-86
2021/07/28 02:28:03;;;;;;;;;;;16.80;99.90;;;;;;4997605;28;19921;-84
2021/07/28 02:30:29;;;;;;;;;;;16.80;99.90;;;;;;5013770;28;19940;-86
2021/07/28 02:32:55;;;;;;;;;;;16.80;99.90;;;;;;5013470;28;19925;-86
2021/07/28 02:35:21;;;;;;;;;;;16.80;99.90;;;;;;5013307;28;20296;-86
2021/07/28 02:37:47;;;;;;;;;;;16.80;99.90;;;;;;5025625;28;20376;-86
2021/07/28 02:40:14;;;;;;;;;;;16.70;99.90;;;;;;5030707;28;19928;-86
2021/07/28 02:42:39;;;;;;;;;;;16.70;99.90;;;;;;5031885;28;19925;-86
2021/07/28 02:45:05;;;;;;;;;;;16.60;99.90;;;;;;4997225;28;20027;-86
2021/07/28 02:47:31;;;;;;;;;;;16.60;99.90;;;;;;4997981;28;19947;-85
2021/07/28 02:49:57;;;;;;;;;;;16.60;99.90;;;;;;5012868;28;20388;-85
2021/07/28 02:52:23;;;;;;;;;;;16.60;99.90;;;;;;4981627;28;20369;-86
2021/07/28 02:54:49;;;;;;;;;;;16.50;99.90;;;;;;5013513;28;20376;-85
2021/07/28 02:57:14;;;;;;;;;;;16.50;99.90;;;;;;4981985;28;19924;-85
2021/07/28 02:59:40;;;;;;;;;;;16.50;99.90;;;;;;4983818;28;20732;-85
2021/07/28 03:02:06;;;;;;;;;;;16.40;99.90;;;;;;5011423;28;19921;-85
2021/07/28 03:04:32;;;;;;;;;;;16.40;99.90;;;;;;5014056;28;19925;-85
2021/07/28 03:06:59;;;;;;;;;;;16.40;99.90;;;;;;5021438;28;21449;-86
2021/07/28 03:09:25;;;;;;;;;;;16.30;99.90;;;;;;4993864;28;19925;-86
2021/07/28 03:11:51;;;;;;;;;;;16.30;99.90;;;;;;5005038;28;19947;-85
2021/07/28 03:14:16;;;;;;;;;;;16.30;99.90;;;;;;4997463;28;19936;-86
2021/07/28 03:16:42;;;;;;;;;;;16.20;99.90;;;;;;4997143;28;19922;-86
2021/07/28 03:19:08;;;;;;;;;;;16.20;99.90;;;;;;5026568;28;20226;-85
2021/07/28 03:21:34;;;;;;;;;;;16.10;99.90;;;;;;4983519;28;19922;-85
2021/07/28 03:24:00;;;;;;;;;;;16.20;99.90;;;;;;4993716;28;19935;-86
2021/07/28 03:26:26;;;;;;;;;;;16.20;99.90;;;;;;5031027;28;19924;-85
2021/07/28 03:28:51;;;;;;;;;;;16.20;99.90;;;;;;5012650;28;19925;-86
2021/07/28 03:31:18;;;;;;;;;;;16.20;99.90;;;;;;5012720;28;20000;-85
2021/07/28 03:33:44;;;;;;;;;;;16.20;99.90;;;;;;5029008;28;19925;-85
2021/07/28 03:36:10;;;;;;;;;;;16.20;99.90;;;;;;5025684;28;20304;-86
2021/07/28 03:38:35;;;;;;;;;;;16.20;99.90;;;;;;4996512;28;19990;-86
2021/07/28 03:41:01;;;;;;;;;;;16.20;99.90;;;;;;5003724;28;19932;-85
2021/07/28 03:43:36;;;;;;;;;;;16.20;99.90;;;;;;5007881;28;20002;-86
2021/07/28 03:46:02;;;;;;;;;;;16.20;99.90;;;;;;4996345;28;19967;-86
2021/07/28 03:48:30;;;;;;;;;;;16.10;99.90;;;;;;4996379;28;19964;-85
2021/07/28 03:50:57;;;;;;;;;;;16.10;99.90;;;;;;5007881;28;19921;-85
2021/07/28 03:53:23;;;;;;;;;;;16.10;99.90;;;;;;5012079;28;20043;-85
2021/07/28 03:55:49;;;;;;;;;;;16.10;99.90;;;;;;5007971;28;20023;-86
2021/07/28 03:58:14;;;;;;;;;;;16.00;99.90;;;;;;4996183;28;19956;-85
2021/07/28 04:00:40;;;;;;;;;;;16.00;99.90;;;;;;5029349;28;20015;-86
2021/07/28 04:03:05;;;;;;;;;;;16.00;99.90;;;;;;4995604;28;19921;-86
2021/07/28 04:05:31;;;;;;;;;;;16.00;99.90;;;;;;5011131;28;19933;-85
2021/07/28 04:07:57;;;;;;;;;;;16.00;99.90;;;;;;4999279;28;19971;-86
2021/07/28 04:10:23;;;;;;;;;;;16.00;99.90;;;;;;5029842;28;20020;-84
2021/07/28 04:12:49;;;;;;;;;;;16.00;99.90;;;;;;5012079;28;20388;-85
2021/07/28 04:15:15;;;;;;;;;;;16.00;99.90;;;;;;4995484;28;20483;-85
2021/07/28 04:17:40;;;;;;;;;;;16.00;99.90;;;;;;4995759;28;19975;-86
2021/07/28 04:20:06;;;;;;;;;;;15.90;99.90;;;;;;4995733;28;19928;-85
2021/07/28 04:22:32;;;;;;;;;;;15.90;99.90;;;;;;5028379;28;20369;-85
2021/07/28 04:24:58;;;;;;;;;;;15.90;99.90;;;;;;4995190;28;19925;-85
2021/07/28 04:27:29;;;;;;;;;;;15.90;99.90;;;;;;4999921;28;20376;-85
2021/07/28 04:29:55;;;;;;;;;;;16.00;99.90;;;;;;4992697;28;20388;-85
2021/07/28 04:32:22;;;;;;;;;;;16.00;99.90;;;;;;4995765;28;19929;-85
2021/07/28 04:34:48;;;;;;;;;;;16.10;99.90;;;;;;4991564;28;19933;-85
2021/07/28 04:37:15;;;;;;;;;;;16.10;99.90;;;;;;5009301;28;19932;-86
2021/07/28 04:39:41;;;;;;;;;;;16.10;99.90;;;;;;5028076;28;19925;-85
2021/07/28 04:42:07;;;;;;;;;;;16.10;99.90;;;;;;5011592;28;20462;-85
2021/07/28 04:44:33;;;;;;;;;;;16.20;99.90;;;;;;4978980;28;19928;-85
2021/07/28 04:46:58;;;;;;;;;;;16.20;99.90;;;;;;5029283;28;20014;-86
2021/07/28 04:49:24;;;;;;;;;;;16.20;99.90;;;;;;5028983;28;20380;-84
2021/07/28 04:51:50;;;;;;;;;;;16.20;99.90;;;;;;5029263;28;19925;-86
2021/07/28 04:54:16;;;;;;;;;;;16.20;99.90;;;;;;5010931;28;19933;-85
2021/07/28 04:56:43;;;;;;;;;;;16.20;99.90;;;;;;5011894;28;20437;-85
2021/07/28 04:59:09;;;;;;;;;;;16.20;99.90;;;;;;5023498;28;20012;-85
2021/07/28 05:01:34;;;;;;;;;;;16.20;99.90;;;;;;5011317;28;19925;-85
2021/07/28 05:04:02;;;;;;;;;;;16.20;99.90;;;;;;4995620;28;19921;-86
2021/07/28 05:06:27;;;;;;;;;;;16.20;99.90;;;;;;5010538;28;19921;-85
2021/07/28 05:08:53;;;;;;;;;;;16.10;99.90;;;;;;5032226;28;19925;-86
2021/07/28 05:11:19;;;;;;;;;;;16.10;99.90;;;;;;5029051;28;19943;-85
2021/07/28 05:13:44;;;;;;;;;;;16.10;99.90;;;;;;4992473;28;19959;-86
2021/07/28 05:16:10;;;;;;;;;;;16.10;99.90;;;;;;5004055;28;19975;-85
2021/07/28 05:18:36;;;;;;;;;;;16.20;99.90;;;;;;5029856;28;19971;-85
2021/07/28 05:21:01;;;;;;;;;;;16.20;99.90;;;;;;5039498;28;20411;-84
2021/07/28 05:23:27;;;;;;;;;;;16.20;99.90;;;;;;5010716;28;19932;-85
2021/07/28 05:25:53;;;;;;;;;;;16.20;99.90;;;;;;4994421;28;19917;-85
2021/07/28 05:28:19;;;;;;;;;;;16.30;99.90;;;;;;5011328;28;20040;-85
2021/07/28 05:30:44;;;;;;;;;;;16.30;99.90;;;;;;5009520;28;20711;-85
2021/07/28 05:33:11;;;;;;;;;;;16.30;99.90;;;;;;4989369;28;20051;-84
2021/07/28 05:35:37;;;;;;;;;;;16.30;99.90;;;;;;5002142;28;19921;-85
2021/07/28 05:38:03;;;;;;;;;;;16.40;99.90;;;;;;5004960;28;20365;-85
2021/07/28 05:40:29;;;;;;;;;;;16.40;99.90;;;;;;5007251;28;19987;-86
2021/07/28 05:42:55;;;;;;;;;;;16.50;99.90;;;;;;5007937;28;19933;-84
2021/07/28 05:45:21;;;;;;;;;;;16.50;99.90;;;;;;4986490;28;19926;-85
2021/07/28 05:47:47;;;;;;;;;;;16.60;99.90;;;;;;5002823;28;19925;-86
2021/07/28 05:50:13;;;;;;;;;;;16.60;99.90;;;;;;5004998;28;19922;-85
2021/07/28 05:52:39;;;;;;;;;;;16.70;99.90;;;;;;4994490;28;19929;-85
2021/07/28 05:55:04;;;;;;;;;;;16.70;99.90;;;;;;5010666;28;19925;-86
2021/07/28 05:57:30;;;;;;;;;;;16.80;99.90;;;;;;4994351;28;19929;-84
2021/07/28 05:59:56;;;;;;;;;;;16.80;99.90;;;;;;5021810;28;20394;-84
2021/07/28 06:02:22;;;;;;;;;;;16.90;99.90;;;;;;4993182;28;20502;-84
2021/07/28 06:04:47;;;;;;;;;;;16.90;99.90;;;;;;5030372;28;20391;-84
2021/07/28 06:07:13;;;;;;;;;;;17.00;99.90;;;;;;4988159;28;20753;-85
2021/07/28 06:09:40;;;;;;;;;;;17.00;99.90;;;;;;4996255;28;19944;-85
2021/07/28 06:12:06;;;;;;;;;;;16.90;99.90;;;;;;4992350;28;19921;-85
2021/07/28 06:14:32;;;;;;;;;;;17.00;99.90;;;;;;5008921;28;19933;-84
2021/07/28 06:16:58;;;;;;;;;;;17.00;99.90;;;;;;4993014;28;20285;-86
2021/07/28 06:19:23;;;;;;;;;;;17.00;99.90;;;;;;4982289;28;19975;-85
2021/07/28 06:21:49;;;;;;;;;;;17.10;99.90;;;;;;4995498;28;19925;-86
2021/07/28 06:24:15;;;;;;;;;;;17.20;99.90;;;;;;4994290;28;19925;-85
2021/07/28 06:26:40;;;;;;;;;;;17.30;99.90;;;;;;5007310;28;20028;-85
2021/07/28 06:29:06;;;;;;;;;;;17.40;99.90;;;;;;5028953;28;20032;-84
2021/07/28 06:31:32;;;;;;;;;;;17.40;99.90;;;;;;5012637;28;19952;-85
2021/07/28 06:33:58;;;;;;;;;;;17.40;99.90;;;;;;5013846;28;19931;-85
2021/07/28 06:36:24;;;;;;;;;;;17.30;99.90;;;;;;4996285;28;20288;-85
2021/07/28 06:38:49;;;;;;;;;;;17.30;99.90;;;;;;4996260;28;20006;-86
2021/07/28 06:41:15;;;;;;;;;;;17.20;99.90;;;;;;5012521;28;19933;-85
2021/07/28 06:43:44;;;;;;;;;;;17.20;99.90;;;;;;5005507;28;19948;-85
2021/07/28 06:46:10;;;;;;;;;;;17.20;99.90;;;;;;5019103;28;19924;-86
2021/07/28 06:48:35;;;;;;;;;;;17.20;99.90;;;;;;5016970;28;20032;-85
2021/07/28 06:51:01;;;;;;;;;;;17.30;99.90;;;;;;4996341;28;19931;-85
2021/07/28 06:53:27;;;;;;;;;;;17.30;99.90;;;;;;5029633;28;19929;-84
2021/07/28 06:55:53;;;;;;;;;;;17.30;99.90;;;;;;4997075;28;19929;-84
2021/07/28 06:58:18;;;;;;;;;;;17.40;99.90;;;;;;4978640;28;19925;-85
2021/07/28 07:00:45;;;;;;;;;;;17.40;99.90;;;;;;4996493;28;20292;-84
2021/07/28 07:03:10;;;;;;;;;;;17.40;99.90;;;;;;5011023;28;19961;-85
2021/07/28 07:05:36;;;;;;;;;;;17.40;99.90;;;;;;5005390;28;19969;-85
2021/07/28 07:08:02;;;;;;;;;;;17.40;99.90;;;;;;4995906;28;20395;-85
2021/07/28 07:10:28;;;;;;;;;;;17.30;99.90;;;;;;4995582;28;19925;-85
2021/07/28 07:12:53;;;;;;;;;;;17.30;99.90;;;;;;4995456;28;20035;-85
2021/07/28 07:15:19;;;;;;;;;;;17.30;99.90;;;;;;5001891;28;19965;-84
2021/07/28 07:17:45;;;;;;;;;;;17.30;99.90;;;;;;5011751;28;20016;-85
2021/07/28 07:20:10;;;;;;;;;;;17.40;99.90;;;;;;5012218;28;19925;-85
2021/07/28 07:22:36;;;;;;;;;;;17.40;99.90;;;;;;5013290;28;20376;-85
2021/07/28 07:25:02;;;;;;;;;;;17.40;99.90;;;;;;5012066;28;19983;-85
2021/07/28 07:27:28;;;;;;;;;;;17.40;99.90;;;;;;5010530;28;20991;-86
2021/07/28 07:29:55;;;;;;;;;;;17.50;99.90;;;;;;4994072;28;19917;-86
2021/07/28 07:32:22;;;;;;;;;;;17.40;99.90;;;;;;4988298;28;19925;-85
2021/07/28 07:34:51;;;;;;;;;;;17.50;99.90;;;;;;5029551;28;20063;-87
2021/07/28 07:37:17;;;;;;;;;;;17.50;99.90;;;;;;5011788;28;19961;-85
2021/07/28 07:39:43;;;;;;;;;;;17.50;99.90;;;;;;4994323;28;19956;-85
2021/07/28 07:42:08;;;;;;;;;;;17.60;99.90;;;;;;5010616;28;19980;-85
2021/07/28 07:44:34;;;;;;;;;;;17.50;99.90;;;;;;4993619;28;20446;-84
2021/07/28 07:47:00;;;;;;;;;;;17.50;99.90;;;;;;5007995;28;19925;-85
2021/07/28 07:49:25;;;;;;;;;;;17.50;99.90;;;;;;4980353;28;19925;-85
2021/07/28 07:51:51;;;;;;;;;;;17.40;99.90;;;;;;4985159;28;19932;-85
2021/07/28 07:54:17;;;;;;;;;;;17.50;99.90;;;;;;4995501;28;19925;-84
2021/07/28 07:56:42;;;;;;;;;;;17.60;99.90;;;;;;5011560;28;20431;-84
2021/07/28 07:59:08;;;;;;;;;;;17.60;99.90;;;;;;4991890;28;19960;-85
2021/07/28 08:01:34;;;;;;;;;;;17.60;99.90;;;;;;5019020;28;19925;-86
2021/07/28 08:03:59;;;;;;;;;;;17.60;99.90;;;;;;5011292;28;19947;-85
2021/07/28 08:06:25;;;;;;;;;;;17.50;99.90;;;;;;4994815;28;19936;-85
2021/07/28 08:08:51;;;;;;;;;;;17.50;99.90;;;;;;4993613;28;19947;-85
2021/07/28 08:11:16;;;;;;;;;;;17.40;99.90;;;;;;4990075;28;19928;-85
2021/07/28 08:13:42;;;;;;;;;;;17.30;99.90;;;;;;5027786;28;19948;-84
2021/07/28 08:16:19;;;;;;;;;;;17.30;99.90;;;;;;5011750;28;19960;-90
2021/07/28 08:18:45;;;;;;;;;;;17.20;99.90;;;;;;4997654;28;19935;-92
2021/07/28 08:21:11;;;;;;;;;;;17.20;99.90;;;;;;5021750;28;20016;-91
2021/07/28 08:23:37;;;;;;;;;;;17.20;99.90;;;;;;5001265;28;19947;-91
2021/07/28 08:26:03;;;;;;;;;;;17.20;99.90;;;;;;5033682;28;19932;-92
2021/07/28 08:28:29;;;;;;;;;;;17.30;99.90;;;;;;5014109;28;20007;-91
2021/07/28 08:30:55;;;;;;;;;;;17.40;99.90;;;;;;5032788;28;20048;-90
2021/07/28 08:33:24;;;;;;;;;;;17.40;99.90;;;;;;4995661;28;19925;-91
2021/07/28 08:35:53;;;;;;;;;;;17.60;99.90;;;;;;5013438;28;19929;-90
2021/07/28 08:38:20;;;;;;;;;;;17.70;99.90;;;;;;5013692;28;19990;-92
2021/07/28 08:40:50;;;;;;;;;;;17.80;99.90;;;;;;4997267;28;19964;-91
2021/07/28 08:43:18;;;;;;;;;;;17.80;99.90;;;;;;5013631;28;19931;-91
2021/07/28 08:45:48;;;;;;;;;;;17.80;99.90;;;;;;5016140;28;19921;-91
2021/07/28 08:48:17;;;;;;;;;;;17.80;99.90;;;;;;4993212;28;19932;-91
2021/07/28 08:50:45;;;;;;;;;;;17.80;99.90;;;;;;4989510;28;20411;-90
2021/07/28 08:53:11;;;;;;;;;;;17.70;99.90;;;;;;5021741;28;19960;-90
2021/07/28 08:55:36;;;;;;;;;;;17.80;99.90;;;;;;5018315;28;19933;-90
2021/07/28 08:58:02;;;;;;;;;;;17.70;99.90;;;;;;4999003;28;19925;-92
2021/07/28 09:00:28;;;;;;;;;;;17.70;99.90;;;;;;5013840;28;20269;-91
2021/07/28 09:02:54;;;;;;;;;;;17.70;99.90;;;;;;4996839;28;19928;-91
2021/07/28 09:05:20;;;;;;;;;;;17.60;99.90;;;;;;5028240;28;20411;-90
2021/07/28 09:07:52;;;;;;;;;;;17.70;99.90;;;;;;5001347;28;19921;-90
2021/07/28 09:10:18;;;;;;;;;;;17.70;99.90;;;;;;5043159;28;19921;-89
2021/07/28 09:12:45;;;;;;;;;;;17.70;99.90;;;;;;5012250;28;19955;-91
2021/07/28 09:15:15;;;;;;;;;;;17.70;99.90;;;;;;5012243;28;19968;-90
2021/07/28 09:17:47;;;;;;;;;;;17.80;99.90;;;;;;5029430;28;19929;-90
2021/07/28 09:20:21;;;;;;;;;;;17.90;99.90;;;;;;4997759;28;20016;-90
2021/07/28 09:22:47;;;;;;;;;;;18.00;99.90;;;;;;5011911;28;19921;-89
2021/07/28 09:25:29;;;;;;;;;;;18.00;99.90;;;;;;4993458;28;20389;-91
2021/07/28 09:27:56;;;;;;;;;;;18.10;99.90;;;;;;4993818;28;19971;-91
2021/07/28 09:30:24;;;;;;;;;;;18.00;99.90;;;;;;4991253;28;20381;-90
2021/07/28 09:32:57;;;;;;;;;;;17.90;99.90;;;;;;5025493;28;19925;-89
2021/07/28 09:35:42;;;;;;;;;;;17.80;99.90;;;;;;5027800;28;19933;-89
2021/07/28 09:38:08;;;;;;;;;;;17.60;99.90;;;;;;5009585;28;19932;-89
2021/07/28 09:40:34;;;;;;;;;;;17.60;99.90;;;;;;4993870;28;20398;-90
2021/07/28 09:43:03;;;;;;;;;;;17.60;99.90;;;;;;5004617;28;20003;-90
2021/07/28 09:45:29;;;;;;;;;;;17.60;99.90;;;;;;4994425;28;19968;-90
2021/07/28 09:47:55;;;;;;;;;;;17.70;99.90;;;;;;5012637;28;19928;-89
2021/07/28 09:50:20;;;;;;;;;;;17.70;99.90;;;;;;5013188;28;19979;-89
2021/07/28 09:52:50;;;;;;;;;;;17.70;99.90;;;;;;5013256;28;20527;-90
2021/07/28 09:55:20;;;;;;;;;;;17.70;99.90;;;;;;5014036;28;20011;-90
2021/07/28 09:57:46;;;;;;;;;;;17.80;99.90;;;;;;5028629;28;19929;-89
2021/07/28 10:00:12;;;;;;;;;;;17.90;99.90;;;;;;5041278;28;19944;-90
2021/07/28 10:02:40;;;;;;;;;;;18.00;99.90;;;;;;5022123;28;20369;-90
2021/07/28 10:05:07;;;;;;;;;;;18.10;99.90;;;;;;5031281;28;19956;-91
2021/07/28 10:07:34;;;;;;;;;;;18.20;99.90;;;;;;4997037;28;19921;-90
2021/07/28 10:10:01;;;;;;;;;;;18.20;99.90;;;;;;5027865;28;19971;-89
2021/07/28 10:12:27;;;;;;;;;;;18.30;99.90;;;;;;5000534;28;19925;-95
2021/07/28 10:14:56;;;;;;;;;;;18.50;99.90;;;;;;5004714;28;19928;-95
2021/07/28 10:17:23;;;;;;;;;;;18.50;99.90;;;;;;5009354;28;19929;-95
2021/07/28 10:19:49;;;;;;;;;;;18.60;99.90;;;;;;5011956;28;19925;-90
2021/07/28 10:22:15;;;;;;;;;;;18.70;99.90;;;;;;5015470;28;20292;-93
2021/07/28 10:24:42;;;;;;;;;;;18.80;99.90;;;;;;5027393;28;19925;-90
2021/07/28 10:27:08;;;;;;;;;;;18.90;99.90;;;;;;5028800;28;19974;-91
2021/07/28 10:29:34;;;;;;;;;;;19.00;99.90;;;;;;5025547;28;20011;-90
2021/07/28 10:31:59;;;;;;;;;;;19.10;99.90;;;;;;5010591;28;19921;-90
2021/07/28 10:34:29;;;;;;;;;;;19.10;99.90;;;;;;5032206;28;19948;-87
2021/07/28 10:37:01;;;;;;;;;;;19.10;99.90;;;;;;5002855;28;19929;-90
2021/07/28 10:39:33;;;;;;;;;;;19.10;99.90;;;;;;5029277;28;19964;-89
2021/07/28 10:41:59;;;;;;;;;;;19.10;99.90;;;;;;5006038;28;20446;-88
2021/07/28 10:44:24;;;;;;;;;;;19.10;99.90;;;;;;5016773;28;19925;-93
2021/07/28 10:46:54;;;;;;;;;;;19.20;99.90;;;;;;5001781;28;19925;-90
2021/07/28 10:49:47;;;;;;;;;;;19.30;99.90;;;;;;5012565;28;20369;-89
2021/07/28 10:52:33;;;;;;;;;;;19.40;99.90;;;;;;5026662;28;19956;-91
2021/07/28 10:54:58;;;;;;;;;;;19.60;99.90;;;;;;5017147;28;19995;-90
2021/07/28 10:57:51;;;;;;;;;;;19.50;99.90;;;;;;5031671;28;20388;-90
2021/07/28 11:00:32;;;;;;;;;;;19.50;99.90;;;;;;5009421;28;19932;-90
2021/07/28 11:02:58;;;;;;;;;;;19.50;99.90;;;;;;5014800;28;19932;-91
2021/07/28 11:05:24;;;;;;;;;;;19.20;99.90;;;;;;5018204;28;20369;-90
2021/07/28 11:08:05;;;;;;;;;;;19.20;99.90;;;;;;5028880;28;19921;-88
2021/07/28 11:10:31;;;;;;;;;;;19.00;99.90;;;;;;5017104;28;20436;-90
2021/07/28 11:12:57;;;;;;;;;;;18.80;99.90;;;;;;5025496;28;19921;-86
2021/07/28 11:15:23;;;;;;;;;;;18.80;99.90;;;;;;5007736;28;19929;-88
2021/07/28 11:17:52;;;;;;;;;;;18.80;99.90;;;;;;5014331;28;19929;-89
2021/07/28 11:20:28;;;;;;;;;;;18.80;99.90;;;;;;5014376;28;19925;-89
2021/07/28 11:23:13;;;;;;;;;;;18.80;99.90;;;;;;5014029;28;20022;-88
2021/07/28 11:25:38;;;;;;;;;;;18.70;99.90;;;;;;5025285;28;19971;-89
2021/07/28 11:28:04;;;;;;;;;;;18.70;99.90;;;;;;5018716;28;19925;-90
2021/07/28 11:30:30;;;;;;;;;;;18.60;99.90;;;;;;4996497;28;19925;-89
2021/07/28 11:33:10;;;;;;;;;;;18.50;99.90;;;;;;5012520;28;19936;-89
2021/07/28 11:35:43;;;;;;;;;;;18.40;99.90;;;;;;5013638;28;20019;-89
2021/07/28 11:38:15;;;;;;;;;;;18.30;99.90;;;;;;5024834;28;19921;-90
2021/07/28 11:40:42;;;;;;;;;;;18.20;99.90;;;;;;5014244;28;20024;-90
2021/07/28 11:43:20;;;;;;;;;;;18.20;99.90;;;;;;5014438;28;19925;-88
2021/07/28 11:45:46;;;;;;;;;;;18.20;99.90;;;;;;5028811;28;19921;-89
2021/07/28 11:48:28;;;;;;;;;;;18.20;99.90;;;;;;5025103;28;20463;-83
2021/07/28 11:50:53;;;;;;;;;;;18.10;99.90;;;;;;5010143;28;19928;-84
2021/07/28 11:53:23;;;;;;;;;;;18.10;99.90;;;;;;4997677;28;19925;-84
2021/07/28 11:55:49;;;;;;;;;;;18.10;99.90;;;;;;5011627;28;20440;-84
2021/07/28 11:58:15;;;;;;;;;;;18.00;99.90;;;;;;5024754;28;20073;-85
2021/07/28 12:00:41;;;;;;;;;;;17.90;99.90;;;;;;5012269;28;19924;-84
2021/07/28 12:03:27;;;;;;;;;;;17.80;99.90;;;;;;5000439;28;19925;-84
2021/07/28 12:06:05;;;;;;;;;;;17.70;99.90;;;;;;5029281;28;20396;-84
2021/07/28 12:08:32;;;;;;;;;;;17.70;99.90;;;;;;5014790;28;20047;-84
2021/07/28 12:11:16;;;;;;;;;;;17.60;99.90;;;;;;5024211;28;20287;-84
2021/07/28 12:13:42;;;;;;;;;;;17.50;99.90;;;;;;5018877;28;20015;-83
2021/07/28 12:16:07;;;;;;;;;;;17.50;99.90;;;;;;5039215;28;20023;-84
2021/07/28 12:18:44;;;;;;;;;;;17.50;99.90;;;;;;5012929;28;20342;-84
2021/07/28 12:21:10;;;;;;;;;;;17.50;99.90;;;;;;5037533;28;19928;-84
2021/07/28 12:23:36;;;;;;;;;;;17.60;99.90;;;;;;4985535;28;19925;-84
2021/07/28 12:26:02;;;;;;;;;;;17.70;99.90;;;;;;5012625;28;19925;-85
2021/07/28 12:28:50;;;;;;;;;;;17.70;99.90;;;;;;4995366;28;20409;-85
2021/07/28 12:31:25;;;;;;;;;;;17.70;99.90;;;;;;5033022;28;19924;-84
2021/07/28 12:33:51;;;;;;;;;;;17.60;99.90;;;;;;5001143;28;19925;-85
2021/07/28 12:36:29;;;;;;;;;;;17.50;99.90;;;;;;5011222;28;20311;-85
2021/07/28 12:38:55;;;;;;;;;;;17.50;99.90;;;;;;5010002;28;19921;-85
2021/07/28 12:41:23;;;;;;;;;;;17.40;99.90;;;;;;4993430;28;19929;-84
2021/07/28 12:43:50;;;;;;;;;;;17.40;99.90;;;;;;5027855;28;19921;-85
2021/07/28 12:46:16;;;;;;;;;;;17.20;99.90;;;;;;4994184;28;20024;-86
2021/07/28 12:48:42;;;;;;;;;;;17.20;99.90;;;;;;4994834;28;19988;-87
2021/07/28 12:51:09;;;;;;;;;;;17.20;99.90;;;;;;5005445;28;20370;-86
2021/07/28 12:53:35;;;;;;;;;;;17.20;99.90;;;;;;5007129;28;19932;-85
2021/07/28 12:56:00;;;;;;;;;;;17.30;99.90;;;;;;5020306;28;19928;-85
2021/07/28 12:58:26;;;;;;;;;;;17.40;99.90;;;;;;5009594;28;19928;-86
2021/07/28 13:00:52;;;;;;;;;;;17.50;99.90;;;;;;4997842;28;20452;-86
2021/07/28 13:03:19;;;;;;;;;;;17.60;99.90;;;;;;4995163;28;20364;-85
2021/07/28 13:05:47;;;;;;;;;;;17.50;99.90;;;;;;4994919;28;19921;-86
2021/07/28 13:08:13;;;;;;;;;;;17.50;99.90;;;;;;4995304;28;19957;-87
2021/07/28 13:10:44;;;;;;;;;;;17.40;99.90;;;;;;4995779;28;20914;-86
2021/07/28 13:13:11;;;;;;;;;;;17.30;99.90;;;;;;5019292;28;19991;-85
2021/07/28 13:15:43;;;;;;;;;;;17.20;99.90;;;;;;5005281;28;19929;-85
2021/07/28 13:18:09;;;;;;;;;;;17.10;99.90;;;;;;5007544;28;19921;-86
2021/07/28 13:20:35;;;;;;;;;;;17.00;99.90;;;;;;5007508;28;20372;-86
2021/07/28 13:23:02;;;;;;;;;;;17.00;99.90;;;;;;4988373;28;19959;-86
2021/07/28 13:25:28;;;;;;;;;;;17.00;99.90;;;;;;4978512;28;19944;-86
2021/07/28 13:27:54;;;;;;;;;;;17.00;99.90;;;;;;4994224;28;20385;-85
2021/07/28 13:30:20;;;;;;;;;;;17.10;99.90;;;;;;4993945;28;20335;-85
2021/07/28 13:32:45;;;;;;;;;;;17.10;99.90;;;;;;5000428;28;19930;-85
2021/07/28 13:35:11;;;;;;;;;;;17.20;99.90;;;;;;4988029;28;19930;-86
2021/07/28 13:37:38;;;;;;;;;;;17.20;99.90;;;;;;5009344;28;19921;-86
2021/07/28 13:40:08;;;;;;;;;;;17.20;99.90;;;;;;4980894;28;19928;-87
2021/07/28 13:42:36;;;;;;;;;;;17.10;99.90;;;;;;5008811;28;19929;-86
2021/07/28 13:45:03;;;;;;;;;;;16.90;99.90;;;;;;5024210;28;19936;-86
2021/07/28 13:47:28;;;;;;;;;;;16.70;99.90;;;;;;4996401;28;19929;-85
2021/07/28 13:49:54;;;;;;;;;;;16.70;99.90;;;;;;5022447;28;19928;-85
2021/07/28 13:52:20;;;;;;;;;;;16.70;99.90;;;;;;4998228;28;19925;-87
2021/07/28 13:54:45;;;;;;;;;;;16.70;99.90;;;;;;4996231;28;19929;-86
2021/07/28 13:57:18;;;;;;;;;;;16.70;99.90;;;;;;5021481;28;20017;-86
2021/07/28 13:59:44;;;;;;;;;;;16.70;99.90;;;;;;5037633;28;19944;-85
2021/07/28 14:02:10;;;;;;;;;;;16.80;99.90;;;;;;5015198;28;19960;-86
2021/07/28 14:04:36;;;;;;;;;;;17.00;99.90;;;;;;5009649;28;20387;-86
2021/07/28 14:07:02;;;;;;;;;;;17.20;99.90;;;;;;5039823;28;20009;-84
2021/07/28 14:09:27;;;;;;;;;;;17.50;99.90;;;;;;5035012;28;19948;-86
2021/07/28 14:11:53;;;;;;;;;;;17.70;99.90;;;;;;5032325;28;19928;-85
2021/07/28 14:14:19;;;;;;;;;;;17.70;99.90;;;;;;5016595;28;20403;-85
2021/07/28 14:16:45;;;;;;;;;;;17.70;99.90;;;;;;5014455;28;19921;-85
2021/07/28 14:19:13;;;;;;;;;;;17.60;99.90;;;;;;5014607;28;20387;-86